createdAt,value
2018-04-29T00:01:59.099Z,16.60
2018-04-29T00:04:26.734Z,16.40
2018-04-29T00:06:54.383Z,16.40
2018-04-29T00:09:22.182Z,16.50
2018-04-29T00:11:50.054Z,16.50
2018-04-29T00:14:17.814Z,16.10
2018-04-29T00:16:45.476Z,16.00
2018-04-29T00:19:13.108Z,15.90
2018-04-29T00:21:40.781Z,15.90
2018-04-29T00:24:08.436Z,16.10
2018-04-29T00:26:36.119Z,15.90
2018-04-29T00:29:03.774Z,16.00
2018-04-29T00:31:31.380Z,16.00
2018-04-29T00:33:59.040Z,15.90
2018-04-29T00:36:27.504Z,15.90
2018-04-29T00:38:55.288Z,15.90
2018-04-29T00:41:23.687Z,15.80
2018-04-29T00:43:52.117Z,15.80
2018-04-29T00:46:19.809Z,15.80
2018-04-29T00:48:48.292Z,16.00
2018-04-29T00:51:16.726Z,16.00
2018-04-29T00:53:44.339Z,16.00
2018-04-29T00:56:12.981Z,16.10
2018-04-29T00:58:40.655Z,16.10
2018-04-29T01:01:08.411Z,16.10
2018-04-29T01:03:36.060Z,16.00
2018-04-29T01:06:03.781Z,16.00
2018-04-29T01:08:31.367Z,16.00
2018-04-29T01:10:59.000Z,15.70
2018-04-29T01:13:27.469Z,15.60
2018-04-29T01:15:56.125Z,15.60
2018-04-29T01:18:23.890Z,15.60
2018-04-29T01:20:51.552Z,15.60
2018-04-29T01:23:19.353Z,15.60
2018-04-29T01:25:47.797Z,15.40
2018-04-29T01:28:15.565Z,15.30
2018-04-29T01:30:43.258Z,15.40
2018-04-29T01:33:10.928Z,15.50
2018-04-29T01:35:40.321Z,15.50
2018-04-29T01:38:08.725Z,15.50
2018-04-29T01:40:37.163Z,15.50
2018-04-29T01:43:04.919Z,15.50
2018-04-29T01:45:32.551Z,15.50
2018-04-29T01:48:00.283Z,15.20
2018-04-29T01:50:28.858Z,15.30
2018-04-29T01:52:57.514Z,15.20
2018-04-29T01:55:25.219Z,15.30
2018-04-29T01:57:53.835Z,15.30
2018-04-29T02:00:22.344Z,15.40
2018-04-29T02:02:50.042Z,15.40
2018-04-29T02:05:18.700Z,15.10
2018-04-29T02:07:46.562Z,15.10
2018-04-29T02:10:14.429Z,15.10
2018-04-29T02:12:42.100Z,15.00
2018-04-29T02:15:09.961Z,15.00
2018-04-29T02:17:37.619Z,15.00
2018-04-29T02:20:05.278Z,14.90
2018-04-29T02:22:32.961Z,14.90
2018-04-29T02:25:00.631Z,15.00
2018-04-29T02:27:28.394Z,15.00
2018-04-29T02:29:56.240Z,14.80
2018-04-29T02:32:24.125Z,14.70
2018-04-29T02:34:51.797Z,14.70
2018-04-29T02:37:19.427Z,14.60
2018-04-29T02:39:47.244Z,14.80
2018-04-29T02:42:15.695Z,14.70
2018-04-29T02:44:43.376Z,14.70
2018-04-29T02:47:11.828Z,14.70
2018-04-29T02:49:40.611Z,14.80
2018-04-29T02:52:08.229Z,14.80
2018-04-29T02:54:36.628Z,14.70
2018-04-29T02:57:04.275Z,14.70
2018-04-29T02:59:32.016Z,14.80
2018-04-29T03:02:00.565Z,14.90
2018-04-29T03:04:28.428Z,14.90
2018-04-29T03:06:56.056Z,15.00
2018-04-29T03:09:23.779Z,15.00
2018-04-29T03:11:51.437Z,14.90
2018-04-29T03:14:19.062Z,14.70
2018-04-29T03:16:46.727Z,14.70
2018-04-29T03:19:14.373Z,14.50
2018-04-29T03:21:43.582Z,14.30
2018-04-29T03:24:11.232Z,14.30
2018-04-29T03:26:38.884Z,14.30
2018-04-29T03:29:06.610Z,14.40
2018-04-29T03:31:34.456Z,14.50
2018-04-29T03:34:02.089Z,14.50
2018-04-29T03:36:29.792Z,14.40
2018-04-29T03:38:58.355Z,14.20
2018-04-29T03:41:26.121Z,14.20
2018-04-29T03:43:53.988Z,14.10
2018-04-29T03:46:21.653Z,14.20
2018-04-29T03:48:49.300Z,14.40
2018-04-29T03:51:16.924Z,14.30
2018-04-29T03:53:45.372Z,14.10
2018-04-29T03:56:13.834Z,14.10
2018-04-29T03:58:53.509Z,14.10
2018-04-29T04:01:32.998Z,14.10
2018-04-29T04:04:00.681Z,14.10
2018-04-29T04:06:28.372Z,14.20
2018-04-29T04:08:56.093Z,14.40
2018-04-29T04:11:23.804Z,14.50
2018-04-29T04:13:51.460Z,14.40
2018-04-29T04:16:19.953Z,14.50
2018-04-29T04:18:48.379Z,14.70
2018-04-29T04:21:16.161Z,14.70
2018-04-29T04:23:43.906Z,14.90
2018-04-29T04:26:11.794Z,15.10
2018-04-29T04:28:39.476Z,15.30
2018-04-29T04:31:07.322Z,15.50
2018-04-29T04:33:35.934Z,15.60
2018-04-29T04:36:03.713Z,15.80
2018-04-29T04:38:32.285Z,16.60
2018-04-29T04:40:59.992Z,16.60
2018-04-29T04:43:27.621Z,17.20
2018-04-29T04:45:56.772Z,17.70
2018-04-29T04:48:24.441Z,17.70
2018-04-29T04:50:52.105Z,17.10
2018-04-29T04:53:19.807Z,17.30
2018-04-29T04:55:48.349Z,18.20
2018-04-29T04:58:16.113Z,18.10
2018-04-29T05:00:43.725Z,18.80
2018-04-29T05:03:12.361Z,19.20
2018-04-29T05:05:39.979Z,19.20
2018-04-29T05:08:08.428Z,20.00
2018-04-29T05:10:36.163Z,20.00
2018-04-29T05:13:03.931Z,20.00
2018-04-29T05:15:31.592Z,20.40
2018-04-29T05:17:59.213Z,20.20
2018-04-29T05:20:26.941Z,20.70
2018-04-29T05:22:54.557Z,21.30
2018-04-29T05:25:22.191Z,21.00
2018-04-29T05:27:50.724Z,21.40
2018-04-29T05:30:18.417Z,21.40
2018-04-29T05:32:46.824Z,21.10
2018-04-29T05:35:14.477Z,21.10
2018-04-29T05:37:43.032Z,21.00
2018-04-29T05:40:10.884Z,21.00
2018-04-29T05:42:38.644Z,21.20
2018-04-29T05:45:06.440Z,21.40
2018-04-29T05:47:34.100Z,20.70
2018-04-29T05:50:02.505Z,21.80
2018-04-29T05:52:30.903Z,21.80
2018-04-29T05:54:58.702Z,21.80
2018-04-29T05:57:26.475Z,22.30
2018-04-29T05:59:54.230Z,22.10
2018-04-29T06:02:22.107Z,23.20
2018-04-29T06:04:49.741Z,24.30
2018-04-29T06:07:17.918Z,24.50
2018-04-29T06:09:45.620Z,24.90
2018-04-29T06:12:13.462Z,25.70
2018-04-29T06:14:41.126Z,25.40
2018-04-29T06:17:08.788Z,24.90
2018-04-29T06:19:36.503Z,24.90
2018-04-29T06:22:05.031Z,24.70
2018-04-29T06:24:32.722Z,24.70
2018-04-29T06:27:00.573Z,24.70
2018-04-29T06:29:28.283Z,24.70
2018-04-29T06:31:56.766Z,24.50
2018-04-29T06:34:24.329Z,24.50
2018-04-29T06:36:51.983Z,24.60
2018-04-29T06:39:20.613Z,25.00
2018-04-29T06:41:48.292Z,25.00
2018-04-29T06:44:15.968Z,25.40
2018-04-29T06:46:43.612Z,25.70
2018-04-29T06:49:11.273Z,26.00
2018-04-29T06:51:39.041Z,25.80
2018-04-29T06:54:06.711Z,25.70
2018-04-29T06:56:34.369Z,26.40
2018-04-29T06:59:02.763Z,27.00
2018-04-29T07:01:30.387Z,27.90
2018-04-29T07:03:58.072Z,28.60
2018-04-29T07:06:25.720Z,28.50
2018-04-29T07:08:53.484Z,27.50
2018-04-29T07:11:21.132Z,27.20
2018-04-29T07:13:48.735Z,27.20
2018-04-29T07:16:17.183Z,28.10
2018-04-29T07:18:44.793Z,28.00
2018-04-29T07:21:13.171Z,28.60
2018-04-29T07:23:42.561Z,29.00
2018-04-29T07:26:11.113Z,28.60
2018-04-29T07:28:38.817Z,28.60
2018-04-29T07:31:06.436Z,29.20
2018-04-29T07:33:34.088Z,29.60
2018-04-29T07:36:01.706Z,30.00
2018-04-29T07:38:30.115Z,28.50
2018-04-29T07:40:57.907Z,28.50
2018-04-29T07:43:25.527Z,27.40
2018-04-29T07:45:53.946Z,26.10
2018-04-29T07:48:21.823Z,26.00
2018-04-29T07:50:49.476Z,25.40
2018-04-29T07:53:17.173Z,25.00
2018-04-29T07:55:44.848Z,24.60
2018-04-29T07:58:13.322Z,24.10
2018-04-29T08:00:41.078Z,24.10
2018-04-29T08:03:08.841Z,23.80
2018-04-29T08:05:36.594Z,23.70
2018-04-29T08:08:04.204Z,23.50
2018-04-29T08:10:32.666Z,23.20
2018-04-29T08:13:01.123Z,23.00
2018-04-29T08:15:28.818Z,23.00
2018-04-29T08:17:56.574Z,22.90
2018-04-29T08:20:24.505Z,22.80
2018-04-29T08:22:52.143Z,22.70
2018-04-29T08:25:19.809Z,22.70
2018-04-29T08:27:47.483Z,22.70
2018-04-29T08:30:15.191Z,22.50
2018-04-29T08:32:43.656Z,22.40
2018-04-29T08:35:11.420Z,22.30
2018-04-29T08:37:39.099Z,22.40
2018-04-29T08:40:07.532Z,22.40
2018-04-29T08:42:35.247Z,22.40
2018-04-29T08:45:03.789Z,21.90
2018-04-29T08:47:31.658Z,21.80
2018-04-29T08:49:59.523Z,22.00
2018-04-29T08:52:28.596Z,22.40
2018-04-29T08:54:56.294Z,22.40
2018-04-29T08:57:24.809Z,22.10
2018-04-29T08:59:53.285Z,22.30
2018-04-29T09:02:21.706Z,22.40
2018-04-29T09:04:49.388Z,22.40
2018-04-29T09:07:17.065Z,22.20
2018-04-29T09:09:46.196Z,22.20
2018-04-29T09:12:13.937Z,22.20
2018-04-29T09:14:42.361Z,22.30
2018-04-29T09:17:09.991Z,22.30
2018-04-29T09:19:37.781Z,22.40
2018-04-29T09:22:05.488Z,22.40
2018-04-29T09:24:33.596Z,22.30
2018-04-29T09:27:01.343Z,22.10
2018-04-29T09:29:29.088Z,22.20
2018-04-29T09:31:56.702Z,22.20
2018-04-29T09:34:25.150Z,22.30
2018-04-29T09:36:53.769Z,22.40
2018-04-29T09:39:22.325Z,22.40
2018-04-29T09:41:50.002Z,22.40
2018-04-29T09:44:18.564Z,22.30
2018-04-29T09:46:46.310Z,22.30
2018-04-29T09:49:14.173Z,22.40
2018-04-29T09:51:41.813Z,22.40
2018-04-29T09:54:09.468Z,22.40
2018-04-29T09:56:37.122Z,22.30
2018-04-29T09:59:05.460Z,22.30
2018-04-29T10:01:35.764Z,22.20
2018-04-29T10:04:03.407Z,22.20
2018-04-29T10:06:31.039Z,22.30
2018-04-29T10:08:59.481Z,22.50
2018-04-29T10:11:27.121Z,22.50
2018-04-29T10:13:54.892Z,22.60
2018-04-29T10:16:22.548Z,22.30
2018-04-29T10:18:50.227Z,22.40
2018-04-29T10:21:18.015Z,22.50
2018-04-29T10:23:46.409Z,22.50
2018-04-29T10:26:14.941Z,22.60
2018-04-29T10:28:42.641Z,22.50
2018-04-29T10:31:11.103Z,22.50
2018-04-29T10:33:38.851Z,22.50
2018-04-29T10:36:06.531Z,22.50
2018-04-29T10:38:34.335Z,22.50
2018-04-29T10:41:03.053Z,22.50
2018-04-29T10:43:31.483Z,22.50
2018-04-29T10:46:00.036Z,22.40
2018-04-29T10:48:27.732Z,22.40
2018-04-29T10:50:56.220Z,22.40
2018-04-29T10:53:24.702Z,22.50
2018-04-29T10:55:53.153Z,22.60
2018-04-29T10:58:20.937Z,22.60
2018-04-29T11:00:49.385Z,22.60
2018-04-29T11:03:16.992Z,22.60
2018-04-29T11:05:44.707Z,22.60
2018-04-29T11:08:12.405Z,22.60
2018-04-29T11:10:40.241Z,22.70
2018-04-29T11:13:08.004Z,22.70
2018-04-29T11:15:35.623Z,22.70
2018-04-29T11:18:04.168Z,22.80
2018-04-29T11:20:31.912Z,22.70
2018-04-29T11:22:59.776Z,22.70
2018-04-29T11:25:27.391Z,22.70
2018-04-29T11:27:55.837Z,22.70
2018-04-29T11:30:23.623Z,22.60
2018-04-29T11:32:52.048Z,22.70
2018-04-29T11:35:19.679Z,22.60
2018-04-29T11:37:48.084Z,22.70
2018-04-29T11:40:15.828Z,22.70
2018-04-29T11:42:44.472Z,22.70
2018-04-29T11:45:12.116Z,22.70
2018-04-29T11:47:39.891Z,22.80
2018-04-29T11:50:07.549Z,22.80
2018-04-29T11:52:35.240Z,22.80
2018-04-29T11:55:03.673Z,22.80
2018-04-29T11:57:31.360Z,22.80
2018-04-29T11:59:59.152Z,22.80
2018-04-29T12:02:27.650Z,22.80
2018-04-29T12:04:55.294Z,22.80
2018-04-29T12:07:22.955Z,22.90
2018-04-29T12:09:51.483Z,22.90
2018-04-29T12:12:19.268Z,22.90
2018-04-29T12:14:46.969Z,22.90
2018-04-29T12:17:15.424Z,22.80
2018-04-29T12:19:46.797Z,22.80
2018-04-29T12:22:14.665Z,22.90
2018-04-29T12:24:43.211Z,22.90
2018-04-29T12:27:10.976Z,22.90
2018-04-29T12:29:39.176Z,22.90
2018-04-29T12:32:06.823Z,22.90
2018-04-29T12:34:34.578Z,22.90
2018-04-29T12:37:02.197Z,22.90
2018-04-29T12:39:30.721Z,22.90
2018-04-29T12:41:58.425Z,22.90
2018-04-29T12:44:26.814Z,23.00
2018-04-29T12:46:55.349Z,23.00
2018-04-29T12:49:23.077Z,23.00
2018-04-29T12:51:50.876Z,23.00
2018-04-29T12:54:18.575Z,23.00
2018-04-29T12:56:46.982Z,23.00
2018-04-29T12:59:15.356Z,23.00
2018-04-29T13:01:44.695Z,23.00
2018-04-29T13:04:12.465Z,23.00
2018-04-29T13:06:40.234Z,23.00
2018-04-29T13:09:07.925Z,23.10
2018-04-29T13:11:36.334Z,23.10
2018-04-29T13:14:04.138Z,23.10
2018-04-29T13:16:31.834Z,23.10
2018-04-29T13:18:59.670Z,23.10
2018-04-29T13:21:27.427Z,23.10
2018-04-29T13:23:55.804Z,23.30
2018-04-29T13:26:23.507Z,23.20
2018-04-29T13:28:51.950Z,23.20
2018-04-29T13:31:19.585Z,23.20
2018-04-29T13:33:47.223Z,23.20
2018-04-29T13:36:16.591Z,23.20
2018-04-29T13:38:44.346Z,23.20
2018-04-29T13:41:12.010Z,23.30
2018-04-29T13:43:39.673Z,23.30
2018-04-29T13:46:07.284Z,23.30
2018-04-29T13:48:35.656Z,23.40
2018-04-29T13:51:04.125Z,23.40
2018-04-29T13:53:32.604Z,23.30
2018-04-29T13:56:01.056Z,23.20
2018-04-29T13:58:28.719Z,23.20
2018-04-29T14:00:56.386Z,23.40
2018-04-29T14:03:24.101Z,23.40
2018-04-29T14:05:51.647Z,23.40
2018-04-29T14:08:20.389Z,23.50
2018-04-29T14:10:48.089Z,23.40
2018-04-29T14:13:16.463Z,23.40
2018-04-29T14:15:44.227Z,23.40
2018-04-29T14:18:11.993Z,23.40
2018-04-29T14:20:39.758Z,23.40
2018-04-29T14:23:07.423Z,23.40
2018-04-29T14:25:35.080Z,23.50
2018-04-29T14:28:02.707Z,23.50
2018-04-29T14:30:30.406Z,23.50
2018-04-29T14:32:58.036Z,23.60
2018-04-29T14:35:25.832Z,23.60
2018-04-29T14:37:53.597Z,23.60
2018-04-29T14:40:21.362Z,23.50
2018-04-29T14:42:50.502Z,23.40
2018-04-29T14:45:18.212Z,23.30
2018-04-29T14:47:45.855Z,23.40
2018-04-29T14:50:13.490Z,23.50
2018-04-29T14:52:41.281Z,23.50
2018-04-29T14:55:08.981Z,23.50
2018-04-29T14:57:37.440Z,23.60
2018-04-29T15:00:05.095Z,23.60
2018-04-29T15:02:32.779Z,23.50
2018-04-29T15:05:00.424Z,23.50
2018-04-29T15:07:28.059Z,23.70
2018-04-29T15:09:55.719Z,23.60
2018-04-29T15:12:23.429Z,23.60
2018-04-29T15:14:51.194Z,23.60
2018-04-29T15:17:19.840Z,23.70
2018-04-29T15:19:50.081Z,23.80
2018-04-29T15:22:17.736Z,23.80
2018-04-29T15:24:45.413Z,23.80
2018-04-29T15:27:13.189Z,23.80
2018-04-29T15:29:40.926Z,23.70
2018-04-29T15:32:08.599Z,23.70
2018-04-29T15:34:36.271Z,23.80
2018-04-29T15:37:04.128Z,23.80
2018-04-29T15:39:31.791Z,23.80
2018-04-29T15:41:59.472Z,23.90
2018-04-29T15:44:27.168Z,24.00
2018-04-29T15:46:54.796Z,23.90
2018-04-29T15:49:22.436Z,24.00
2018-04-29T15:51:51.238Z,24.00
2018-04-29T15:54:18.888Z,23.90
2018-04-29T15:56:46.645Z,23.90
2018-04-29T15:59:14.327Z,23.90
2018-04-29T16:01:42.235Z,23.80
2018-04-29T16:04:10.975Z,23.80
2018-04-29T16:06:38.758Z,23.80
2018-04-29T16:09:06.490Z,23.80
2018-04-29T16:11:34.113Z,23.80
2018-04-29T16:14:02.516Z,23.80
2018-04-29T16:16:30.179Z,23.70
2018-04-29T16:18:57.972Z,23.80
2018-04-29T16:21:25.835Z,23.80
2018-04-29T16:23:53.617Z,23.80
2018-04-29T16:26:21.905Z,23.80
2018-04-29T16:28:52.096Z,23.70
2018-04-29T16:31:19.785Z,23.70
2018-04-29T16:33:47.449Z,23.70
2018-04-29T16:36:15.116Z,23.70
2018-04-29T16:38:43.591Z,23.70
2018-04-29T16:41:11.337Z,23.70
2018-04-29T16:43:39.135Z,23.70
2018-04-29T16:46:06.958Z,23.60
2018-04-29T16:48:34.584Z,23.50
2018-04-29T16:51:02.256Z,23.50
2018-04-29T16:53:29.871Z,23.40
2018-04-29T16:55:57.524Z,23.30
2018-04-29T16:58:25.203Z,23.30
2018-04-29T17:00:53.037Z,23.30
2018-04-29T17:03:20.832Z,23.30
2018-04-29T17:05:48.692Z,23.20
2018-04-29T17:08:16.402Z,23.30
2018-04-29T17:10:44.096Z,23.40
2018-04-29T17:13:12.570Z,23.40
2018-04-29T17:15:40.252Z,23.40
2018-04-29T17:18:07.873Z,23.40
2018-04-29T17:20:35.664Z,23.40
2018-04-29T17:23:03.316Z,23.40
2018-04-29T17:25:30.975Z,23.40
2018-04-29T17:27:58.661Z,23.30
2018-04-29T17:30:26.340Z,23.30
2018-04-29T17:32:55.027Z,23.20
2018-04-29T17:35:22.761Z,23.20
2018-04-29T17:37:50.440Z,23.20
2018-04-29T17:40:18.081Z,23.20
2018-04-29T17:42:45.730Z,23.20
2018-04-29T17:45:13.518Z,23.20
2018-04-29T17:47:41.168Z,23.20
2018-04-29T17:50:08.817Z,23.10
2018-04-29T17:52:37.245Z,23.00
2018-04-29T17:55:04.908Z,23.00
2018-04-29T17:57:32.656Z,23.00
2018-04-29T18:00:01.484Z,22.90
2018-04-29T18:02:30.783Z,22.90
2018-04-29T18:04:59.325Z,22.90
2018-04-29T18:07:27.028Z,22.90
2018-04-29T18:09:55.444Z,22.80
2018-04-29T18:12:23.231Z,22.80
2018-04-29T18:14:51.097Z,22.70
2018-04-29T18:17:19.373Z,22.70
2018-04-29T18:19:48.269Z,22.70
2018-04-29T18:22:16.287Z,22.60
2018-04-29T18:24:45.232Z,22.60
2018-04-29T18:27:14.534Z,22.50
2018-04-29T18:29:43.164Z,22.50
2018-04-29T18:32:12.259Z,22.50
2018-04-29T18:34:42.125Z,22.40
2018-04-29T18:37:10.930Z,22.40
2018-04-29T18:39:39.005Z,22.30
2018-04-29T18:42:09.047Z,22.20
2018-04-29T18:44:37.649Z,22.20
2018-04-29T18:47:05.459Z,22.20
2018-04-29T18:49:34.187Z,22.10
2018-04-29T18:52:02.752Z,22.10
2018-04-29T18:54:30.558Z,22.10
2018-04-29T18:56:58.365Z,22.10
2018-04-29T18:59:25.999Z,22.10
2018-04-29T19:01:53.816Z,22.10
2018-04-29T19:04:22.344Z,21.90
2018-04-29T19:06:50.062Z,21.90
2018-04-29T19:09:17.679Z,21.90
2018-04-29T19:11:45.392Z,21.90
2018-04-29T19:14:13.832Z,21.90
2018-04-29T19:16:41.606Z,21.80
2018-04-29T19:19:09.285Z,21.80
2018-04-29T19:21:36.933Z,21.80
2018-04-29T19:24:04.730Z,21.80
2018-04-29T19:26:33.193Z,21.70
2018-04-29T19:29:00.874Z,21.80
2018-04-29T19:31:28.619Z,21.70
2018-04-29T19:33:56.247Z,21.70
2018-04-29T19:36:23.931Z,21.70
2018-04-29T19:38:52.613Z,21.60
2018-04-29T19:41:20.221Z,21.60
2018-04-29T19:43:48.808Z,21.60
2018-04-29T19:46:17.208Z,21.60
2018-04-29T19:48:44.814Z,21.60
2018-04-29T19:51:12.477Z,21.60
2018-04-29T19:53:40.108Z,21.60
2018-04-29T19:56:08.726Z,21.60
2018-04-29T19:58:36.439Z,21.50
2018-04-29T20:01:04.097Z,21.50
2018-04-29T20:03:31.803Z,21.50
2018-04-29T20:05:59.499Z,21.50
2018-04-29T20:08:28.069Z,21.50
2018-04-29T20:10:56.979Z,21.40
2018-04-29T20:13:25.557Z,21.40
2018-04-29T20:15:53.979Z,21.40
2018-04-29T20:18:21.633Z,21.40
2018-04-29T20:20:50.196Z,21.40
2018-04-29T20:23:18.833Z,21.40
2018-04-29T20:25:48.341Z,21.40
2018-04-29T20:28:16.029Z,21.40
2018-04-29T20:30:43.668Z,21.30
2018-04-29T20:33:11.349Z,21.30
2018-04-29T20:35:38.964Z,21.40
2018-04-29T20:38:06.582Z,21.30
2018-04-29T20:40:34.429Z,21.30
2018-04-29T20:43:02.876Z,21.20
2018-04-29T20:45:30.536Z,21.20
2018-04-29T20:47:58.252Z,21.20
2018-04-29T20:50:26.705Z,21.20
2018-04-29T20:52:54.395Z,21.10
2018-04-29T20:55:22.245Z,21.10
2018-04-29T20:57:50.816Z,21.10
2018-04-29T21:00:18.512Z,21.10
2018-04-29T21:02:46.187Z,21.10
2018-04-29T21:05:14.735Z,21.10
2018-04-29T21:07:42.992Z,21.10
2018-04-29T21:10:10.664Z,21.10
2018-04-29T21:12:39.163Z,21.00
2018-04-29T21:15:06.969Z,21.00
2018-04-29T21:17:34.974Z,21.00
2018-04-29T21:20:02.652Z,20.90
2018-04-29T21:22:30.413Z,20.90
2018-04-29T21:24:58.494Z,20.90
2018-04-29T21:27:26.257Z,20.80
2018-04-29T21:29:53.926Z,20.80
2018-04-29T21:32:21.608Z,20.80
2018-04-29T21:34:50.099Z,20.70
2018-04-29T21:37:18.493Z,20.70
2018-04-29T21:39:46.136Z,20.70
2018-04-29T21:42:14.612Z,20.60
2018-04-29T21:44:42.265Z,20.60
2018-04-29T21:47:10.748Z,20.60
2018-04-29T21:49:38.583Z,20.60
2018-04-29T21:52:06.377Z,20.50
2018-04-29T21:54:34.046Z,20.50
2018-04-29T21:57:02.620Z,20.40
2018-04-29T21:59:30.296Z,20.40
2018-04-29T22:01:57.937Z,20.40
2018-04-29T22:04:25.701Z,20.40
2018-04-29T22:06:53.391Z,20.40
2018-04-29T22:09:22.035Z,20.20
2018-04-29T22:11:49.709Z,20.20
2018-04-29T22:14:17.476Z,20.20
2018-04-29T22:16:45.140Z,20.10
2018-04-29T22:19:12.764Z,20.20
2018-04-29T22:21:40.456Z,20.20
2018-04-29T22:24:08.079Z,20.20
2018-04-29T22:26:35.767Z,20.20
2018-04-29T22:29:03.400Z,20.20
2018-04-29T22:31:31.076Z,20.10
2018-04-29T22:33:58.883Z,20.10
2018-04-29T22:36:26.625Z,20.00
2018-04-29T22:38:54.303Z,20.00
2018-04-29T22:41:22.103Z,20.00
2018-04-29T22:43:50.528Z,19.90
2018-04-29T22:46:18.213Z,19.90
2018-04-29T22:48:46.000Z,19.90
2018-04-29T22:51:13.649Z,19.90
2018-04-29T22:53:41.420Z,19.90
2018-04-29T22:56:09.930Z,19.80
2018-04-29T22:58:38.484Z,19.80
2018-04-29T23:01:06.923Z,19.80
2018-04-29T23:03:34.802Z,19.70
2018-04-29T23:06:02.425Z,19.70
2018-04-29T23:08:30.056Z,19.70
2018-04-29T23:10:57.747Z,19.60
2018-04-29T23:13:25.405Z,19.50
2018-04-29T23:15:53.846Z,19.40
2018-04-29T23:18:21.521Z,19.30
2018-04-29T23:20:49.273Z,19.40
2018-04-29T23:23:16.959Z,19.40
2018-04-29T23:25:44.788Z,19.30
2018-04-29T23:28:12.553Z,19.30
2018-04-29T23:30:40.317Z,19.30
2018-04-29T23:33:08.185Z,19.20
2018-04-29T23:35:35.853Z,19.20
2018-04-29T23:38:03.895Z,19.20
2018-04-29T23:40:31.684Z,19.10
2018-04-29T23:42:59.380Z,19.10
2018-04-29T23:45:27.869Z,19.00
2018-04-29T23:47:55.534Z,19.00
2018-04-29T23:50:23.992Z,18.90
2018-04-29T23:52:51.735Z,18.80
2018-04-29T23:55:19.456Z,18.80
2018-04-29T23:57:47.187Z,18.90
